Eden, Maryland
Current Conditions -  °F | °C
As of 8:54 AM on Saturday 22 Nov 2014 (Local Time) from KSBY Reporting Station
Clear Clear  
Wind Chill: 31°   Ceiling: Unl
Heat Index: 35°   Visibility: 10mi
Dew Point: 17°   Wind: 5mph
Humidity: 48%   Direction: 160°SSE
Pressure: 30.55"   Gusts: NA
Location:  38.28°N, 75.65°W
Report Text: KSBY 221354Z 16004KT 10SM CLR 02/M08 A3055 RMK AO2 SLP347 T00171083
Loading
Personal Weather Stations






























Interactive Weather Map New forecast layout! Learn more

10-Day Weather Forecast

Advertisements
Track Severe Weather on mobile